Smolensk, Russia
Current Conditions -  °F | °C
As of 8:00 PM on Tuesday 21 Oct 2014 (Local Time) from UMII Reporting Station
Broken Clouds Broken Clouds  
Wind Chill: 24°   Ceiling: 1200
Heat Index: 32°   Visibility: 4mi
Dew Point: 32°   Wind: 9mph
Humidity: 100%   Direction: 360°N
Pressure: 29.68"   Gusts: 16mph
Location:  54.78°N, 32.04°E
Report Text: UMII 211700Z 36004G07MPS P6000 BKN012CB 00/M00 Q1005 R23/190060TEMPO 1000 SHSNRA BKN003
Loading
Personal Weather Stations






























Interactive Weather Map
Tropical Storm Tracking
New forecast layout! Learn more

10-Day Weather Forecast

Advertisements
Track Severe Weather on mobile